Prairie City, Oregon
Current Conditions -  °F | °C
As of 4:55 AM on Saturday 20 Dec 2014 (Local Time) from KGCD Reporting Station
Moderate Rain Moderate Rain  
Wind Chill: 35°   Ceiling: 4500
Heat Index: 38°   Visibility: 10mi
Dew Point: 35°   Wind: 5mph
Humidity: 89%   Direction: 80°E
Pressure: 29.92"   Gusts: NA
Location:  44.46°N, 118.71°W
Report Text: KGCD 201255Z AUTO 08004KT 10SM RA SCT019 BKN045 OVC050 04/02 A2992 RMK AO2 T00350018
Loading
Personal Weather Stations






























Interactive Weather Map New forecast layout! Learn more

10-Day Weather Forecast

Advertisements
Track Severe Weather on mobile